Time;durP1;ratioP1;P1;durP2;ratioP2;P2;SDS_P1;SDS_P2;PMS_P1;PMS_P2;Temp;Humidity;BMP_temperature;BMP_pressure;BME280_temperature;BME280_humidity;BME280_pressure;Samples;Min_cycle;Max_cycle;Signal;HPM_P1;HPM_P2
2022/04/19 00:02:01;;;;;;;;;;;15.60;55.00;;;;;;5102391;28;19915;-66
2022/04/19 00:04:27;;;;;;;;;;;15.60;55.00;;;;;;5102304;28;19923;-67
2022/04/19 00:06:52;;;;;;;;;;;15.60;55.00;;;;;;5102219;28;20069;-67
2022/04/19 00:09:18;;;;;;;;;;;15.60;55.00;;;;;;5102201;28;20226;-66
2022/04/19 00:11:44;;;;;;;;;;;15.60;54.90;;;;;;5102259;28;19942;-66
2022/04/19 00:14:10;;;;;;;;;;;15.60;54.90;;;;;;5102181;28;20184;-66
2022/04/19 00:16:36;;;;;;;;;;;15.60;55.00;;;;;;5102077;28;19939;-66
2022/04/19 00:19:02;;;;;;;;;;;15.60;55.00;;;;;;5102110;28;20142;-67
2022/04/19 00:21:27;;;;;;;;;;;15.60;55.00;;;;;;5101982;28;19908;-67
2022/04/19 00:23:54;;;;;;;;;;;15.60;55.00;;;;;;5101903;28;19927;-67
2022/04/19 00:26:19;;;;;;;;;;;15.60;55.00;;;;;;5101853;28;20096;-67
2022/04/19 00:28:45;;;;;;;;;;;15.60;55.10;;;;;;5101862;28;19947;-67
2022/04/19 00:31:11;;;;;;;;;;;15.50;55.10;;;;;;5101787;28;19988;-67
2022/04/19 00:33:42;;;;;;;;;;;15.50;55.00;;;;;;5101764;28;19915;-67
2022/04/19 00:36:08;;;;;;;;;;;15.60;55.00;;;;;;5101750;28;19900;-66
2022/04/19 00:38:34;;;;;;;;;;;15.60;55.00;;;;;;5101719;28;19908;-67
2022/04/19 00:40:59;;;;;;;;;;;15.50;54.90;;;;;;5101633;28;20192;-67
2022/04/19 00:43:26;;;;;;;;;;;15.50;55.00;;;;;;5101578;28;19908;-67
2022/04/19 00:45:52;;;;;;;;;;;15.50;55.00;;;;;;5101480;28;20245;-66
2022/04/19 00:48:19;;;;;;;;;;;15.50;55.00;;;;;;5100216;28;19904;-67
2022/04/19 00:50:44;;;;;;;;;;;15.50;55.00;;;;;;5101486;28;19907;-66
2022/04/19 00:53:11;;;;;;;;;;;15.50;55.00;;;;;;5101374;28;19912;-67
2022/04/19 00:55:38;;;;;;;;;;;15.50;55.00;;;;;;5101131;28;20111;-66
2022/04/19 00:58:06;;;;;;;;;;;15.50;55.00;;;;;;5101362;28;19903;-67
2022/04/19 01:00:31;;;;;;;;;;;15.50;54.90;;;;;;5099921;28;19908;-66
2022/04/19 01:02:57;;;;;;;;;;;15.50;54.90;;;;;;5101182;28;20192;-67
2022/04/19 01:05:22;;;;;;;;;;;15.50;54.90;;;;;;5101089;28;19908;-67
2022/04/19 01:07:48;;;;;;;;;;;15.50;55.00;;;;;;5101068;28;19915;-66
2022/04/19 01:10:14;;;;;;;;;;;15.50;55.00;;;;;;5101072;28;20139;-67
2022/04/19 01:15:24;;;;;;;;;;;15.50;55.00;;;;;;5100976;28;20112;-66
2022/04/19 01:17:50;;;;;;;;;;;15.50;55.00;;;;;;5100980;28;19900;-67
2022/04/19 01:20:16;;;;;;;;;;;15.50;55.00;;;;;;5100317;28;19908;-67
2022/04/19 01:22:42;;;;;;;;;;;15.50;54.90;;;;;;5100862;28;19908;-67
2022/04/19 01:25:08;;;;;;;;;;;15.50;54.90;;;;;;5100702;28;20280;-67
2022/04/19 01:27:34;;;;;;;;;;;15.40;54.90;;;;;;5100805;28;19907;-67
2022/04/19 01:30:02;;;;;;;;;;;15.40;55.00;;;;;;5100692;28;19908;-66
2022/04/19 01:32:28;;;;;;;;;;;15.40;55.00;;;;;;5100657;28;19908;-66
2022/04/19 01:35:12;;;;;;;;;;;15.40;54.90;;;;;;5100649;28;19930;-67
2022/04/19 01:37:39;;;;;;;;;;;15.40;55.00;;;;;;5100581;28;19900;-67
2022/04/19 01:40:17;;;;;;;;;;;15.40;55.00;;;;;;5100555;28;20185;-66
2022/04/19 01:42:58;;;;;;;;;;;15.40;54.90;;;;;;5100587;28;19914;-67
2022/04/19 01:45:28;;;;;;;;;;;15.50;55.00;;;;;;5100411;28;19912;-67
2022/04/19 01:47:54;;;;;;;;;;;15.40;55.00;;;;;;5100446;28;19899;-67
2022/04/19 01:50:20;;;;;;;;;;;15.50;55.00;;;;;;5100390;28;19907;-66
2022/04/19 01:52:46;;;;;;;;;;;15.40;55.70;;;;;;5100345;28;19915;-66
2022/04/19 01:55:14;;;;;;;;;;;15.40;55.00;;;;;;5100350;28;19908;-68
2022/04/19 01:57:47;;;;;;;;;;;15.40;55.00;;;;;;5100125;28;19987;-66
2022/04/19 02:00:13;;;;;;;;;;;15.40;55.00;;;;;;5100261;28;19978;-67
2022/04/19 02:02:39;;;;;;;;;;;15.40;55.20;;;;;;5100206;28;19908;-67
2022/04/19 02:05:07;;;;;;;;;;;15.30;55.00;;;;;;5100079;28;19939;-67
2022/04/19 02:07:37;;;;;;;;;;;15.40;55.10;;;;;;5100191;28;19907;-67
2022/04/19 02:10:04;;;;;;;;;;;15.30;55.00;;;;;;5100160;28;19908;-66
2022/04/19 02:12:30;;;;;;;;;;;15.30;55.10;;;;;;5100044;28;19900;-67
2022/04/19 02:14:55;;;;;;;;;;;15.30;55.00;;;;;;5100022;28;19949;-66
2022/04/19 02:17:23;;;;;;;;;;;15.40;55.00;;;;;;5099999;28;19914;-66
2022/04/19 02:19:59;;;;;;;;;;;15.40;55.00;;;;;;5098727;28;20134;-66
2022/04/19 02:22:25;;;;;;;;;;;15.30;55.00;;;;;;5099999;28;20112;-66
2022/04/19 02:24:50;;;;;;;;;;;15.30;55.00;;;;;;5099866;28;19912;-68
2022/04/19 02:27:16;;;;;;;;;;;15.30;55.00;;;;;;5098544;28;19908;-67
2022/04/19 02:29:42;;;;;;;;;;;15.30;55.00;;;;;;5099909;28;19923;-67
2022/04/19 02:32:07;;;;;;;;;;;15.30;55.00;;;;;;5102012;28;19991;-67
2022/04/19 02:34:33;;;;;;;;;;;15.30;55.00;;;;;;5104074;28;19900;-67
2022/04/19 02:36:58;;;;;;;;;;;15.30;55.00;;;;;;5104117;28;19949;-67
2022/04/19 02:39:24;;;;;;;;;;;15.30;55.00;;;;;;5104025;28;19909;-67
2022/04/19 02:41:52;;;;;;;;;;;15.30;55.00;;;;;;5103929;28;20212;-67
2022/04/19 02:44:17;;;;;;;;;;;15.30;55.00;;;;;;5103839;28;19912;-66
2022/04/19 02:46:43;;;;;;;;;;;15.20;55.00;;;;;;5103873;28;19900;-66
2022/04/19 02:49:08;;;;;;;;;;;15.20;55.10;;;;;;5103811;28;20275;-66
2022/04/19 02:51:34;;;;;;;;;;;15.30;55.00;;;;;;5103743;28;19937;-67
2022/04/19 02:54:00;;;;;;;;;;;15.30;55.00;;;;;;5103715;28;20013;-66
2022/04/19 02:56:26;;;;;;;;;;;15.30;55.00;;;;;;5103402;28;19975;-67
2022/04/19 02:58:51;;;;;;;;;;;15.30;55.00;;;;;;5103657;28;19916;-68
2022/04/19 03:01:17;;;;;;;;;;;15.30;55.00;;;;;;5103577;28;19915;-68
2022/04/19 03:03:43;;;;;;;;;;;15.30;55.00;;;;;;5103541;28;19946;-67
2022/04/19 03:06:09;;;;;;;;;;;15.30;55.10;;;;;;5103490;28;19908;-68
2022/04/19 03:08:35;;;;;;;;;;;15.20;55.00;;;;;;5103485;28;19907;-66
2022/04/19 03:11:01;;;;;;;;;;;15.20;55.00;;;;;;5103377;28;19908;-66
2022/04/19 03:13:31;;;;;;;;;;;15.20;55.10;;;;;;5103320;28;20245;-66
2022/04/19 03:15:57;;;;;;;;;;;15.20;55.10;;;;;;5103313;28;19908;-67
2022/04/19 03:18:22;;;;;;;;;;;15.20;55.10;;;;;;5103299;28;19949;-67
2022/04/19 03:20:48;;;;;;;;;;;15.20;55.00;;;;;;5103153;28;19907;-67
2022/04/19 03:28:42;;;;;;;;;;;15.20;55.00;;;;;;5103033;28;19949;-67
2022/04/19 03:31:08;;;;;;;;;;;15.20;55.10;;;;;;5103035;28;19912;-66
2022/04/19 03:33:36;;;;;;;;;;;15.10;55.10;;;;;;5102989;28;19915;-66
2022/04/19 03:36:02;;;;;;;;;;;15.10;55.80;;;;;;5102980;28;19975;-67
2022/04/19 03:38:28;;;;;;;;;;;15.20;55.10;;;;;;5102917;28;19975;-67
2022/04/19 03:40:53;;;;;;;;;;;15.10;55.10;;;;;;5102911;28;19908;-66
2022/04/19 03:43:20;;;;;;;;;;;15.10;55.00;;;;;;5102538;28;19926;-66
2022/04/19 03:45:45;;;;;;;;;;;15.20;55.00;;;;;;5102702;28;19938;-66
2022/04/19 03:48:13;;;;;;;;;;;15.10;55.00;;;;;;5102704;28;20235;-66
2022/04/19 03:50:39;;;;;;;;;;;15.20;55.00;;;;;;5102677;28;19908;-67
2022/04/19 03:53:05;;;;;;;;;;;15.10;55.00;;;;;;5102561;28;19908;-67
2022/04/19 03:55:31;;;;;;;;;;;15.20;55.00;;;;;;5102424;28;19908;-66
2022/04/19 03:57:56;;;;;;;;;;;15.10;55.00;;;;;;5102578;28;19908;-66
2022/04/19 04:00:22;;;;;;;;;;;15.20;55.10;;;;;;5102113;28;19984;-68
2022/04/19 04:02:47;;;;;;;;;;;15.10;55.00;;;;;;5102441;28;19908;-67
2022/04/19 04:05:13;;;;;;;;;;;15.10;55.10;;;;;;5102332;28;19950;-68
2022/04/19 04:07:39;;;;;;;;;;;15.10;55.10;;;;;;5102332;28;19908;-67
2022/04/19 04:10:05;;;;;;;;;;;15.10;55.20;;;;;;5102342;28;20100;-67
2022/04/19 04:12:30;;;;;;;;;;;15.00;55.10;;;;;;5102183;28;19980;-66
2022/04/19 04:14:56;;;;;;;;;;;15.10;55.20;;;;;;5102183;28;19911;-67
2022/04/19 04:17:22;;;;;;;;;;;15.10;55.10;;;;;;5102211;28;19908;-66
2022/04/19 04:19:47;;;;;;;;;;;15.10;55.20;;;;;;5102159;28;19907;-67
2022/04/19 04:22:13;;;;;;;;;;;15.10;55.20;;;;;;5102142;28;20193;-67
2022/04/19 04:24:38;;;;;;;;;;;15.00;55.10;;;;;;5101959;28;19912;-66
2022/04/19 04:27:04;;;;;;;;;;;15.00;55.00;;;;;;5101990;28;19907;-68
2022/04/19 04:29:30;;;;;;;;;;;15.10;55.70;;;;;;5101911;28;19923;-66
2022/04/19 04:31:55;;;;;;;;;;;15.10;55.00;;;;;;5101910;28;19983;-67
2022/04/19 04:34:21;;;;;;;;;;;15.10;55.00;;;;;;5101814;28;19914;-66
2022/04/19 04:36:47;;;;;;;;;;;15.10;55.00;;;;;;5101770;28;20112;-67
2022/04/19 04:39:14;;;;;;;;;;;15.10;55.00;;;;;;5101743;28;20229;-66
2022/04/19 04:41:40;;;;;;;;;;;15.10;55.00;;;;;;5101664;28;19900;-67
2022/04/19 04:44:05;;;;;;;;;;;15.10;55.00;;;;;;5101578;28;19919;-67
2022/04/19 04:51:59;;;;;;;;;;;15.00;55.00;;;;;;5101478;28;19907;-66
2022/04/19 04:54:25;;;;;;;;;;;15.10;54.90;;;;;;5100532;28;19908;-67
2022/04/19 04:56:52;;;;;;;;;;;15.00;54.90;;;;;;5101264;28;20224;-66
2022/04/19 04:59:17;;;;;;;;;;;15.00;55.00;;;;;;5101339;28;19911;-66
2022/04/19 05:01:43;;;;;;;;;;;15.00;55.00;;;;;;5100014;28;19908;-67
2022/04/19 05:04:09;;;;;;;;;;;15.00;55.60;;;;;;5101229;28;20116;-67
2022/04/19 05:06:34;;;;;;;;;;;15.00;55.10;;;;;;5101244;28;19906;-66
2022/04/19 05:09:00;;;;;;;;;;;15.00;55.00;;;;;;5101466;28;19908;-66
2022/04/19 05:11:25;;;;;;;;;;;15.10;55.00;;;;;;5101095;28;20189;-67
2022/04/19 05:13:51;;;;;;;;;;;15.00;54.90;;;;;;5101036;28;19908;-66
2022/04/19 05:16:16;;;;;;;;;;;15.00;54.80;;;;;;5101015;28;19908;-67
2022/04/19 05:18:42;;;;;;;;;;;15.10;54.90;;;;;;5101016;28;19908;-67
2022/04/19 05:21:08;;;;;;;;;;;15.00;55.00;;;;;;5100805;28;19908;-67
2022/04/19 05:23:34;;;;;;;;;;;15.10;55.00;;;;;;5100898;28;19915;-67
2022/04/19 05:26:00;;;;;;;;;;;15.00;55.00;;;;;;5100793;28;19916;-68
2022/04/19 05:28:25;;;;;;;;;;;15.00;54.90;;;;;;5100789;28;20219;-67
2022/04/19 05:30:51;;;;;;;;;;;15.00;54.90;;;;;;5100794;28;19914;-67
2022/04/19 05:33:16;;;;;;;;;;;15.10;54.80;;;;;;5100707;28;20297;-67
2022/04/19 05:35:42;;;;;;;;;;;15.00;54.90;;;;;;5100679;28;19908;-67
2022/04/19 05:38:07;;;;;;;;;;;15.00;54.80;;;;;;5100630;28;19929;-67
2022/04/19 05:40:33;;;;;;;;;;;15.10;54.90;;;;;;5100602;28;19915;-67
2022/04/19 05:42:58;;;;;;;;;;;15.00;54.80;;;;;;5100570;28;19912;-66
2022/04/19 05:45:24;;;;;;;;;;;15.00;54.80;;;;;;5100442;28;19903;-66
2022/04/19 05:47:49;;;;;;;;;;;15.00;54.80;;;;;;5100467;28;20291;-68
2022/04/19 05:50:15;;;;;;;;;;;15.10;54.80;;;;;;5099143;28;20099;-67
2022/04/19 05:52:40;;;;;;;;;;;15.10;54.70;;;;;;5100408;28;19935;-67
2022/04/19 05:55:06;;;;;;;;;;;15.10;54.80;;;;;;5100380;28;19985;-66
2022/04/19 05:57:32;;;;;;;;;;;15.10;54.80;;;;;;5100218;28;19924;-68
2022/04/19 05:59:58;;;;;;;;;;;15.10;54.70;;;;;;5100256;28;19908;-66
2022/04/19 06:05:07;;;;;;;;;;;15.10;54.50;;;;;;5099946;28;19939;-66
2022/04/19 06:07:41;;;;;;;;;;;15.10;54.60;;;;;;5100200;28;20200;-69
2022/04/19 06:10:07;;;;;;;;;;;15.10;54.60;;;;;;5100177;28;20281;-67
2022/04/19 06:12:33;;;;;;;;;;;15.10;54.60;;;;;;5100125;28;19908;-67
2022/04/19 06:14:58;;;;;;;;;;;15.20;54.60;;;;;;5098786;28;19908;-67
2022/04/19 06:17:27;;;;;;;;;;;15.20;54.60;;;;;;5100094;28;19908;-66
2022/04/19 06:19:52;;;;;;;;;;;15.20;54.50;;;;;;5100004;28;19915;-66
2022/04/19 06:22:18;;;;;;;;;;;15.10;54.50;;;;;;5099978;28;19974;-67
2022/04/19 06:24:43;;;;;;;;;;;15.10;54.40;;;;;;5099877;28;19912;-66
2022/04/19 06:27:09;;;;;;;;;;;15.10;54.40;;;;;;5099881;28;19907;-67
2022/04/19 06:29:34;;;;;;;;;;;15.20;54.50;;;;;;5099921;28;20111;-66
2022/04/19 06:32:01;;;;;;;;;;;15.10;54.40;;;;;;5099890;28;19930;-67
2022/04/19 06:34:27;;;;;;;;;;;15.10;54.40;;;;;;5099860;28;19908;-67
2022/04/19 06:36:52;;;;;;;;;;;15.10;54.40;;;;;;5099900;28;20111;-67
2022/04/19 06:39:18;;;;;;;;;;;15.20;54.40;;;;;;5099719;28;19927;-66
2022/04/19 06:41:43;;;;;;;;;;;15.20;54.40;;;;;;5099837;28;20104;-67
2022/04/19 06:44:09;;;;;;;;;;;15.20;54.30;;;;;;5099671;28;19944;-67
2022/04/19 06:46:36;;;;;;;;;;;15.20;54.30;;;;;;5099759;28;19908;-66
2022/04/19 06:49:03;;;;;;;;;;;15.20;54.30;;;;;;5099698;28;20243;-67
2022/04/19 06:51:30;;;;;;;;;;;15.20;54.30;;;;;;5099690;28;19908;-66
2022/04/19 06:53:56;;;;;;;;;;;15.30;54.20;;;;;;5099579;28;19915;-66
2022/04/19 06:56:21;;;;;;;;;;;15.30;54.20;;;;;;5098318;28;19916;-67
2022/04/19 06:58:48;;;;;;;;;;;15.20;54.30;;;;;;5099595;28;19912;-66
2022/04/19 07:01:14;;;;;;;;;;;15.20;54.20;;;;;;5099604;28;19908;-66
2022/04/19 07:03:39;;;;;;;;;;;15.20;54.10;;;;;;5099599;28;19943;-67
2022/04/19 07:06:06;;;;;;;;;;;15.20;54.20;;;;;;5099425;28;19915;-66
2022/04/19 07:08:31;;;;;;;;;;;15.20;54.20;;;;;;5099474;28;19908;-67
2022/04/19 07:10:57;;;;;;;;;;;15.20;54.20;;;;;;5099478;28;20257;-67
2022/04/19 07:13:23;;;;;;;;;;;15.30;54.20;;;;;;5099534;28;20382;-67
2022/04/19 07:15:49;;;;;;;;;;;15.20;54.10;;;;;;5098174;28;19918;-67
2022/04/19 07:18:17;;;;;;;;;;;15.20;54.20;;;;;;5101612;28;19935;-67
2022/04/19 07:28:55;;;;;;;;;;;15.30;54.10;;;;;;5103097;28;20040;-66
2022/04/19 07:31:21;;;;;;;;;;;15.30;54.20;;;;;;5103073;28;19932;-66
2022/04/19 07:33:46;;;;;;;;;;;15.20;54.30;;;;;;5103098;28;19908;-67
2022/04/19 07:36:12;;;;;;;;;;;15.20;54.80;;;;;;5103468;28;19908;-67
2022/04/19 07:38:37;;;;;;;;;;;15.20;54.20;;;;;;5103333;28;19908;-68
2022/04/19 07:41:04;;;;;;;;;;;15.20;54.20;;;;;;5102910;28;19979;-68
2022/04/19 07:43:30;;;;;;;;;;;15.20;54.10;;;;;;5103011;28;19907;-66
2022/04/19 07:45:56;;;;;;;;;;;15.20;54.20;;;;;;5102700;28;19943;-67
2022/04/19 07:48:21;;;;;;;;;;;15.30;54.30;;;;;;5102731;28;20165;-67
2022/04/19 07:50:47;;;;;;;;;;;15.20;54.20;;;;;;5102685;28;20196;-67
2022/04/19 07:53:13;;;;;;;;;;;15.30;54.20;;;;;;5102675;28;20481;-66
2022/04/19 07:55:38;;;;;;;;;;;15.20;54.20;;;;;;5102433;28;19908;-66
2022/04/19 07:58:04;;;;;;;;;;;15.20;54.30;;;;;;5102524;28;19912;-67
2022/04/19 08:00:30;;;;;;;;;;;15.20;54.30;;;;;;5102685;28;19915;-67
2022/04/19 08:02:56;;;;;;;;;;;15.20;54.30;;;;;;5102441;28;19915;-67
2022/04/19 08:05:22;;;;;;;;;;;15.20;54.30;;;;;;5102612;28;19947;-67
2022/04/19 08:07:50;;;;;;;;;;;15.20;54.30;;;;;;5102274;28;19947;-67
2022/04/19 08:10:16;;;;;;;;;;;15.30;54.30;;;;;;5102317;28;19977;-66
2022/04/19 08:12:42;;;;;;;;;;;15.30;54.20;;;;;;5102320;28;19908;-66
2022/04/19 08:15:08;;;;;;;;;;;15.20;54.30;;;;;;5102095;28;20104;-66
2022/04/19 08:17:34;;;;;;;;;;;15.20;54.30;;;;;;5102527;28;19915;-67
2022/04/19 08:19:59;;;;;;;;;;;15.20;54.30;;;;;;5102098;28;19900;-67
2022/04/19 08:22:25;;;;;;;;;;;15.20;54.40;;;;;;5102313;28;19948;-67
2022/04/19 08:24:50;;;;;;;;;;;15.20;54.40;;;;;;5101930;28;20050;-67
2022/04/19 08:27:16;;;;;;;;;;;15.20;54.40;;;;;;5102004;28;19934;-66
2022/04/19 08:29:45;;;;;;;;;;;15.20;54.40;;;;;;5101953;28;19908;-68
2022/04/19 08:32:10;;;;;;;;;;;15.20;54.50;;;;;;5101869;28;19908;-67
2022/04/19 08:34:36;;;;;;;;;;;15.10;54.50;;;;;;5101821;28;19960;-66
2022/04/19 08:37:02;;;;;;;;;;;15.10;54.50;;;;;;5101770;28;19946;-66
2022/04/19 08:39:28;;;;;;;;;;;15.20;54.50;;;;;;5101620;28;19908;-67
2022/04/19 08:41:54;;;;;;;;;;;15.20;54.50;;;;;;5101669;28;19908;-67
2022/04/19 08:44:19;;;;;;;;;;;15.20;54.60;;;;;;5101488;28;19912;-67
2022/04/19 08:46:45;;;;;;;;;;;15.20;54.50;;;;;;5101588;28;19908;-67
2022/04/19 08:49:11;;;;;;;;;;;15.20;54.50;;;;;;5101515;28;19900;-67
2022/04/19 08:51:38;;;;;;;;;;;15.20;54.50;;;;;;5101464;28;19908;-66
2022/04/19 08:59:54;;;;;;;;;;;15.20;55.10;;;;;;5098984;28;20038;-66
2022/04/19 09:02:20;;;;;;;;;;;15.20;54.50;;;;;;5100356;28;19900;-66
2022/04/19 09:04:46;;;;;;;;;;;15.20;54.60;;;;;;5101190;28;19908;-67
2022/04/19 09:07:12;;;;;;;;;;;15.20;54.60;;;;;;5101206;28;19931;-67
2022/04/19 09:09:38;;;;;;;;;;;15.10;54.60;;;;;;5101121;28;20179;-67
2022/04/19 09:12:06;;;;;;;;;;;15.20;54.60;;;;;;5101140;28;19965;-66
2022/04/19 09:14:32;;;;;;;;;;;15.20;54.60;;;;;;5101078;28;19972;-68
2022/04/19 09:17:05;;;;;;;;;;;15.20;54.60;;;;;;5100923;28;19912;-67
2022/04/19 09:19:30;;;;;;;;;;;15.20;54.60;;;;;;5100970;28;19991;-67
2022/04/19 09:21:56;;;;;;;;;;;15.10;54.60;;;;;;5100926;28;20196;-66
2022/04/19 09:24:22;;;;;;;;;;;15.20;54.60;;;;;;5100819;28;20096;-67
2022/04/19 09:26:48;;;;;;;;;;;15.20;54.60;;;;;;5100780;28;19908;-67
2022/04/19 09:29:24;;;;;;;;;;;15.20;54.60;;;;;;5100762;28;19907;-67
2022/04/19 09:32:11;;;;;;;;;;;15.20;54.60;;;;;;5100711;28;19912;-66
2022/04/19 09:34:37;;;;;;;;;;;15.20;54.60;;;;;;5100700;28;19979;-67
2022/04/19 09:37:07;;;;;;;;;;;15.10;54.60;;;;;;5100635;28;19927;-66
2022/04/19 09:39:35;;;;;;;;;;;15.20;54.70;;;;;;5099222;28;20089;-66
2022/04/19 09:42:05;;;;;;;;;;;15.20;54.60;;;;;;5098944;28;20081;-67
2022/04/19 09:44:35;;;;;;;;;;;15.20;54.60;;;;;;5100446;28;19954;-67
2022/04/19 09:47:02;;;;;;;;;;;15.20;54.70;;;;;;5100455;28;20006;-67
2022/04/19 09:49:44;;;;;;;;;;;15.20;54.60;;;;;;5100371;28;19915;-68
2022/04/19 09:52:14;;;;;;;;;;;15.20;54.50;;;;;;5100353;28;20332;-67
2022/04/19 09:54:44;;;;;;;;;;;15.20;54.60;;;;;;5100348;28;20247;-67
2022/04/19 09:57:09;;;;;;;;;;;15.20;54.60;;;;;;5100142;28;19915;-66
2022/04/19 09:59:43;;;;;;;;;;;15.20;54.60;;;;;;5100300;28;19908;-67
2022/04/19 10:10:24;;;;;;;;;;;15.20;54.50;;;;;;5100160;28;19930;-67
2022/04/19 10:12:51;;;;;;;;;;;15.20;54.60;;;;;;5100064;28;19900;-67
2022/04/19 10:15:16;;;;;;;;;;;15.20;54.50;;;;;;5100059;28;19907;-67
2022/04/19 10:17:42;;;;;;;;;;;15.20;54.60;;;;;;5100020;28;19915;-66
2022/04/19 10:20:08;;;;;;;;;;;15.20;54.60;;;;;;5099941;28;19915;-67
2022/04/19 10:22:33;;;;;;;;;;;15.20;54.60;;;;;;5099968;28;19907;-67
2022/04/19 10:25:01;;;;;;;;;;;15.10;54.60;;;;;;5099828;28;20130;-68
2022/04/19 10:27:31;;;;;;;;;;;15.20;54.70;;;;;;5099939;28;19908;-66
2022/04/19 10:29:56;;;;;;;;;;;15.20;54.70;;;;;;5099877;28;20093;-67
2022/04/19 10:32:33;;;;;;;;;;;15.10;54.70;;;;;;5098571;28;19930;-67
2022/04/19 10:35:03;;;;;;;;;;;15.20;54.60;;;;;;5100129;28;19939;-67
2022/04/19 10:37:29;;;;;;;;;;;15.20;54.60;;;;;;5099780;28;19907;-66
2022/04/19 10:39:57;;;;;;;;;;;15.20;54.60;;;;;;5099830;28;19914;-68
2022/04/19 10:42:30;;;;;;;;;;;15.20;54.70;;;;;;5099798;28;20112;-66
2022/04/19 10:44:56;;;;;;;;;;;15.10;54.70;;;;;;5099668;28;19912;-66
2022/04/19 10:47:27;;;;;;;;;;;15.20;54.60;;;;;;5099936;28;20152;-67
2022/04/19 10:50:05;;;;;;;;;;;15.20;54.70;;;;;;5099848;28;19923;-67
2022/04/19 10:52:40;;;;;;;;;;;15.20;54.70;;;;;;5100846;28;19978;-66
2022/04/19 10:55:08;;;;;;;;;;;15.20;54.60;;;;;;5103752;28;19915;-68
2022/04/19 11:00:27;;;;;;;;;;;15.10;54.70;;;;;;5103633;28;19950;-67
2022/04/19 11:03:19;;;;;;;;;;;15.10;54.70;;;;;;5103715;28;19914;-67
2022/04/19 11:05:50;;;;;;;;;;;15.10;54.70;;;;;;5101444;28;20010;-67
2022/04/19 11:08:15;;;;;;;;;;;15.10;54.70;;;;;;5102313;28;20142;-67
2022/04/19 11:10:41;;;;;;;;;;;15.20;54.60;;;;;;5103490;28;19900;-67
2022/04/19 11:13:06;;;;;;;;;;;15.10;54.60;;;;;;5103425;28;19908;-67
2022/04/19 11:15:38;;;;;;;;;;;15.10;54.70;;;;;;5103411;28;19972;-67
2022/04/19 11:18:24;;;;;;;;;;;15.10;54.60;;;;;;5102010;28;19908;-67
2022/04/19 11:20:50;;;;;;;;;;;15.10;54.70;;;;;;5103253;28;19899;-66
2022/04/19 11:23:17;;;;;;;;;;;15.20;54.70;;;;;;5103255;28;19908;-67
2022/04/19 11:25:43;;;;;;;;;;;15.20;54.70;;;;;;5103146;28;19919;-67
2022/04/19 11:28:10;;;;;;;;;;;15.20;54.60;;;;;;5103154;28;20207;-66
2022/04/19 11:30:36;;;;;;;;;;;15.20;54.60;;;;;;5103130;28;19974;-66
2022/04/19 11:33:08;;;;;;;;;;;15.20;54.60;;;;;;5103085;28;19915;-67
2022/04/19 11:35:33;;;;;;;;;;;15.20;54.60;;;;;;5103009;28;19907;-67
2022/04/19 11:38:08;;;;;;;;;;;15.20;54.60;;;;;;5102978;28;19907;-67
2022/04/19 11:46:50;;;;;;;;;;;15.20;54.60;;;;;;5102731;28;19998;-68
2022/04/19 11:49:09;;;;;;;;;;;15.10;54.60;;;;;;5102415;28;20108;-67
2022/04/19 11:51:35;;;;;;;;;;;15.20;54.60;;;;;;5102728;28;19979;-66
2022/04/19 11:54:02;;;;;;;;;;;15.20;54.60;;;;;;5102646;28;20107;-67
2022/04/19 11:56:29;;;;;;;;;;;15.20;54.70;;;;;;5102479;28;20204;-66
2022/04/19 11:58:57;;;;;;;;;;;15.20;54.70;;;;;;5101311;28;19908;-67
2022/04/19 12:01:23;;;;;;;;;;;15.20;54.70;;;;;;5102500;28;19908;-67
2022/04/19 12:03:48;;;;;;;;;;;15.20;54.60;;;;;;5102042;28;20163;-66
2022/04/19 12:06:15;;;;;;;;;;;15.20;54.60;;;;;;5102380;28;19907;-67
2022/04/19 12:08:45;;;;;;;;;;;15.20;54.60;;;;;;5101075;28;19997;-68
2022/04/19 12:11:13;;;;;;;;;;;15.20;54.60;;;;;;5102362;28;19908;-67
2022/04/19 12:13:41;;;;;;;;;;;15.20;54.60;;;;;;5102272;28;19915;-67
2022/04/19 12:16:09;;;;;;;;;;;15.20;54.60;;;;;;5102253;28;19981;-67
2022/04/19 12:18:38;;;;;;;;;;;15.20;54.60;;;;;;5102227;28;20209;-66
2022/04/19 12:21:05;;;;;;;;;;;15.20;54.50;;;;;;5102158;28;19930;-67
2022/04/19 12:23:31;;;;;;;;;;;15.20;54.60;;;;;;5102099;28;19915;-67
2022/04/19 12:26:01;;;;;;;;;;;15.20;54.50;;;;;;5101981;28;19919;-67
2022/04/19 12:28:43;;;;;;;;;;;15.20;54.50;;;;;;5102292;28;19907;-67
2022/04/19 12:31:28;;;;;;;;;;;15.20;54.50;;;;;;5101929;28;19915;-67
2022/04/19 12:33:54;;;;;;;;;;;15.20;54.50;;;;;;5101979;28;19908;-67
2022/04/19 12:36:22;;;;;;;;;;;15.20;54.50;;;;;;5102036;28;19900;-67
2022/04/19 12:38:57;;;;;;;;;;;15.10;54.50;;;;;;5101994;28;19915;-66
2022/04/19 12:41:31;;;;;;;;;;;15.30;54.40;;;;;;5100518;28;19984;-67
2022/04/19 12:44:00;;;;;;;;;;;15.20;54.30;;;;;;5101684;28;19914;-67
2022/04/19 12:46:25;;;;;;;;;;;15.20;55.00;;;;;;5101580;28;20116;-67
2022/04/19 12:48:52;;;;;;;;;;;15.30;54.30;;;;;;5101548;28;19908;-66
2022/04/19 12:51:21;;;;;;;;;;;15.30;54.30;;;;;;5101503;28;19908;-66
2022/04/19 12:54:00;;;;;;;;;;;15.30;54.40;;;;;;5101483;28;20432;-66
2022/04/19 12:56:26;;;;;;;;;;;15.30;54.30;;;;;;5101335;28;19937;-66
2022/04/19 12:58:51;;;;;;;;;;;15.20;54.30;;;;;;5101378;28;19979;-67
2022/04/19 13:01:17;;;;;;;;;;;15.20;54.30;;;;;;5101267;28;19977;-66
2022/04/19 13:03:42;;;;;;;;;;;15.30;54.30;;;;;;5101310;28;19912;-67
2022/04/19 13:14:41;;;;;;;;;;;15.40;54.00;;;;;;5098249;28;20123;-67
2022/04/19 13:17:06;;;;;;;;;;;15.40;54.00;;;;;;5099717;28;19975;-67
2022/04/19 13:19:32;;;;;;;;;;;15.40;54.00;;;;;;5101004;28;19988;-66
2022/04/19 13:21:57;;;;;;;;;;;15.40;53.90;;;;;;5100889;28;19908;-67
2022/04/19 13:24:23;;;;;;;;;;;15.40;53.90;;;;;;5100872;28;19949;-66
2022/04/19 13:26:48;;;;;;;;;;;15.40;54.00;;;;;;5100862;28;19974;-67
2022/04/19 13:29:14;;;;;;;;;;;15.50;53.80;;;;;;5099566;28;20148;-66
2022/04/19 13:31:40;;;;;;;;;;;15.50;53.90;;;;;;5100729;28;20139;-66
2022/04/19 13:34:05;;;;;;;;;;;15.50;53.90;;;;;;5099357;28;19983;-66
2022/04/19 13:36:31;;;;;;;;;;;15.50;54.00;;;;;;5100611;28;19915;-67
2022/04/19 13:38:56;;;;;;;;;;;15.50;54.00;;;;;;5100609;28;19908;-67
2022/04/19 13:41:22;;;;;;;;;;;15.60;53.80;;;;;;5100579;28;19908;-67
2022/04/19 13:43:48;;;;;;;;;;;15.60;53.80;;;;;;5100408;28;19908;-67
2022/04/19 13:46:13;;;;;;;;;;;15.60;53.90;;;;;;5100460;28;19986;-67
2022/04/19 13:48:39;;;;;;;;;;;15.50;54.00;;;;;;5100468;28;19907;-67
2022/04/19 13:51:05;;;;;;;;;;;15.60;54.00;;;;;;5100428;28;19929;-66
2022/04/19 13:53:32;;;;;;;;;;;15.50;53.90;;;;;;5100395;28;19996;-67
2022/04/19 13:55:58;;;;;;;;;;;15.50;54.00;;;;;;5100147;28;19908;-66
2022/04/19 13:58:24;;;;;;;;;;;15.50;54.10;;;;;;5100329;28;20371;-67
2022/04/19 14:00:49;;;;;;;;;;;15.50;54.10;;;;;;5100262;28;19900;-67
2022/04/19 14:03:15;;;;;;;;;;;15.50;54.20;;;;;;5100242;28;19915;-67
2022/04/19 14:05:40;;;;;;;;;;;15.50;54.10;;;;;;5100118;28;19949;-66
2022/04/19 14:08:06;;;;;;;;;;;15.50;54.20;;;;;;5100161;28;19900;-67
2022/04/19 14:10:32;;;;;;;;;;;15.50;54.10;;;;;;5100100;28;20261;-67
2022/04/19 14:12:57;;;;;;;;;;;15.60;54.10;;;;;;5100021;28;19908;-67
2022/04/19 14:15:23;;;;;;;;;;;15.60;54.60;;;;;;5100076;28;20234;-67
2022/04/19 14:17:48;;;;;;;;;;;15.60;54.10;;;;;;5100006;28;19908;-66
2022/04/19 14:20:14;;;;;;;;;;;15.60;54.10;;;;;;5099982;28;19976;-66
2022/04/19 14:22:40;;;;;;;;;;;15.70;54.00;;;;;;5100170;28;19908;-66
2022/04/19 14:25:06;;;;;;;;;;;15.70;53.90;;;;;;5100009;28;19919;-67
2022/04/19 14:27:31;;;;;;;;;;;15.80;53.70;;;;;;5099786;28;19908;-68
2022/04/19 14:35:25;;;;;;;;;;;15.90;53.30;;;;;;5099815;28;19931;-67
2022/04/19 14:37:51;;;;;;;;;;;15.90;53.30;;;;;;5099743;28;20255;-67
2022/04/19 14:40:17;;;;;;;;;;;16.00;53.20;;;;;;5099778;28;19915;-67
2022/04/19 14:42:43;;;;;;;;;;;16.00;53.20;;;;;;5099757;28;19907;-67
2022/04/19 14:45:16;;;;;;;;;;;16.00;53.20;;;;;;5099674;28;19951;-67
2022/04/19 14:47:42;;;;;;;;;;;16.10;53.10;;;;;;5098393;28;20207;-66
2022/04/19 14:50:08;;;;;;;;;;;16.10;53.10;;;;;;5099697;28;19915;-66
2022/04/19 14:52:33;;;;;;;;;;;16.10;53.10;;;;;;5099719;28;19915;-67
2022/04/19 14:54:59;;;;;;;;;;;16.10;53.00;;;;;;5099858;28;19963;-67
2022/04/19 14:57:25;;;;;;;;;;;16.10;53.00;;;;;;5099523;28;19987;-67
2022/04/19 14:59:50;;;;;;;;;;;16.10;53.00;;;;;;5099621;28;19912;-67
2022/04/19 15:02:16;;;;;;;;;;;16.10;53.10;;;;;;5099825;28;19907;-67
2022/04/19 15:04:42;;;;;;;;;;;16.10;53.10;;;;;;5099428;28;19915;-66
2022/04/19 15:07:08;;;;;;;;;;;16.10;53.10;;;;;;5099462;28;20226;-67
2022/04/19 15:09:34;;;;;;;;;;;16.20;53.10;;;;;;5099552;28;19935;-67
2022/04/19 15:12:02;;;;;;;;;;;16.20;53.20;;;;;;5099469;28;19900;-67
2022/04/19 15:14:30;;;;;;;;;;;16.10;53.30;;;;;;5099462;28;19908;-67
2022/04/19 15:16:56;;;;;;;;;;;16.10;53.40;;;;;;5099349;28;19904;-67